Flight Track Log - Related Links

Times and Time Zones

All times are in EST time to prevent confusion due to time zone crossing. See the ASH2859 flight status page for this flight to view local times or setup timezone preferences in your user account.

Time Position Orientation Groundspeed Altitude Reporting Facility
EST Latitude Longitude Course Direction KTS MPH feet Rate Location/Type
Tue 02:33:37 PM 29.5200 -98.4569 305° West 173 199 1,600  Level Houston Center
Tue 02:33:40 PM 29.5203 -98.4569 360° North 182 209 1,600 2,333 Level Houston Center
Tue 02:33:55 PM 29.5106 -98.4461 136° Southeast 167 192 2,300 2,419 Climbing Houston Center
Tue 02:34:42 PM 29.4806 -98.4089 133° Southeast 201 231 4,100 2,459 Climbing Houston Center
Tue 02:34:56 PM 29.4675 -98.4106 186° South 215 247 4,800 2,516 Climbing Houston Center
Tue 02:35:44 PM 29.4514 -98.4539 247° West 227 261 6,700 2,400 Climbing Houston Center
Tue 02:36:00 PM 29.7807 -98.6676 313° West  Level FlightAware Approximate
Tue 02:36:46 PM 29.5175 -98.5106 323° Northwest 279 321 9,200  Level Houston Center
Tue 02:37:00 PM 29.8504 -98.7561 311° West  Level FlightAware Approximate
Tue 02:37:48 PM 29.5900 -98.5650 327° Northwest 305 351 11,100  Level Houston Center
Tue 02:38:00 PM 29.9196 -98.8453 313° West  Level FlightAware Approximate
Tue 02:38:51 PM 29.6706 -98.6294 325° Northwest 348 400 13,300  Level Houston Center
Tue 02:39:00 PM 29.9824 -98.9373 305° West  Level FlightAware Approximate
Tue 02:39:53 PM 29.7594 -98.6994 326° Northwest 357 411 16,300  Level Houston Center
Tue 02:40:55 PM 29.8411 -98.7642 325° Northwest 356 410 18,300 2,129 Climbing Houston Center
Tue 02:41:57 PM 29.9194 -98.8472 317° Northwest 353 406 20,700 1,984 Climbing Houston Center
Tue 02:42:59 PM 29.9822 -98.9375 309° West 361 415 22,400 1,694 Climbing Houston Center
Tue 02:44:01 PM 30.0531 -99.0358 310° West 368 423 24,200 1,632 Climbing Houston Center
Tue 02:45:04 PM 30.1089 -99.1156 309° West 367 422 25,800 1,344 Climbing Houston Center
Tue 02:46:06 PM 30.1728 -99.2106 308° West 375 432 27,000 1,403 Climbing Houston Center
Tue 02:47:08 PM 30.2425 -99.3300 304° West 376 433 28,700 1,306 Climbing Houston Center
Tue 02:48:10 PM 30.2714 -99.4461 286° West 376 433 29,700 1,065 Climbing Houston Center
Tue 02:49:12 PM 30.3006 -99.5625 286° West 378 435 30,900 864 Climbing Houston Center
Tue 02:50:15 PM 30.3311 -99.6797 287° West 382 440 31,500 1,008 Climbing Houston Center
Tue 02:51:17 PM 30.3614 -99.7972 287° West 384 442 33,000 1,306 Climbing Houston Center
Tue 02:52:19 PM 30.3956 -99.9353 286° West 376 433 34,200 1,065 Climbing Houston Center
Tue 02:53:21 PM 30.4253 -100.0489 287° West 373 429 35,200 1,065 Climbing Houston Center
Tue 02:54:23 PM 30.4531 -100.1608 286° West 367 422 36,400 1,065 Climbing Houston Center
Tue 02:55:25 PM 30.4797 -100.2689 286° West 356 410 37,400 768 Climbing Houston Center
Tue 02:56:28 PM 30.5072 -100.3728 287° West 342 394 38,000 288 Climbing Houston Center
Tue 02:57:30 PM 30.5375 -100.5028 285° West 350 403 38,000  Level Houston Center
Tue 02:58:32 PM 30.5647 -100.6094 287° West 347 399 38,000  Level Houston Center
Tue 02:59:34 PM 30.5906 -100.7169 286° West 348 400 38,000  Level Houston Center
Tue 03:00:36 PM 30.6150 -100.8228 285° West 342 394 38,000  Level Houston Center
Tue 03:01:38 PM 30.6411 -100.9297 286° West 345 397 38,000  Level Houston Center
Tue 03:02:41 PM 30.6725 -101.0594 286° West 349 402 38,000  Level Houston Center
Tue 03:03:43 PM 30.6986 -101.1678 286° West 350 403 38,000  Level Houston Center
Tue 03:04:45 PM 30.7250 -101.2772 286° West 352 405 38,000  Level Houston Center
Tue 03:05:47 PM 30.7506 -101.3864 285° West 351 404 38,000  Level Houston Center
Tue 03:06:49 PM 30.7772 -101.4964 286° West 353 406 38,000  Level Houston Center
Tue 03:07:51 PM 30.8069 -101.6256 285° West 352 405 38,000  Level Houston Center
Tue 03:08:54 PM 30.8342 -101.7353 286° West 354 407 38,000  Level Houston Center
Tue 03:09:56 PM 30.8600 -101.8450 285° West 352 405 38,000 -48 Level Houston Center
Tue 03:10:58 PM 30.8867 -101.9558 286° West 354 407 37,900  Descending Houston Center
Tue 03:12:00 PM 30.9117 -102.0653 285° West 351 404 38,000 48 Climbing Houston Center
Tue 03:13:02 PM 30.9372 -102.1747 285° West 350 403 38,000  Level Houston Center
Tue 03:14:04 PM 30.9675 -102.3072 285° West 350 403 38,000  Level Houston Center
Tue 03:15:06 PM 30.9922 -102.4186 285° West 352 405 38,000  Level Houston Center
Tue 03:15:45 PM 31.0072 -102.4847 285° West 351 404 38,000  Level Albuquerque Center
Tue 03:16:47 PM 31.0325 -102.5961 285° West 353 406 38,000  Level Albuquerque Center
Tue 03:17:49 PM 31.0581 -102.7064 285° West 350 403 38,000  Level Albuquerque Center
Tue 03:18:50 PM 31.0825 -102.8164 285° West 350 403 38,000  Level Albuquerque Center
Tue 03:19:52 PM 31.1081 -102.9289 285° West 355 409 38,000  Level Albuquerque Center
Tue 03:20:54 PM 31.1378 -103.0614 285° West 354 407 38,000  Level Albuquerque Center
Tue 03:21:56 PM 31.1622 -103.1725 284° West 353 406 38,000  Level Albuquerque Center
Tue 03:22:58 PM 31.1869 -103.2836 285° West 354 407 38,000  Level Albuquerque Center
Tue 03:24:00 PM 31.2111 -103.3961 284° West 355 409 38,000  Level Albuquerque Center
Tue 03:25:01 PM 31.2369 -103.5083 285° West 358 412 38,000  Level Albuquerque Center
Tue 03:26:03 PM 31.2611 -103.6194 284° West 356 410 38,000  Level Albuquerque Center
Tue 03:27:05 PM 31.2861 -103.7333 284° West 359 413 38,000  Level Albuquerque Center
Tue 03:28:07 PM 31.3142 -103.8606 285° West 358 412 38,000  Level Albuquerque Center
Tue 03:29:09 PM 31.3394 -103.9747 285° West 362 417 38,000  Level Albuquerque Center
Tue 03:30:10 PM 31.3639 -104.0881 284° West 362 417 38,000  Level Albuquerque Center
Tue 03:31:12 PM 31.3889 -104.2031 284° West 364 419 38,000  Level Albuquerque Center
Tue 03:32:14 PM 31.4139 -104.3178 284° West 365 420 38,000  Level Albuquerque Center
Tue 03:33:16 PM 31.4439 -104.4542 284° West 364 419 38,000  Level Albuquerque Center
Tue 03:34:18 PM 31.4678 -104.5692 284° West 365 420 38,000  Level Albuquerque Center
Tue 03:35:20 PM 31.4922 -104.6833 284° West 364 419 38,000  Level Albuquerque Center
Tue 03:36:21 PM 31.5153 -104.7969 283° West 363 418 38,000  Level Albuquerque Center
Tue 03:37:23 PM 31.5392 -104.9108 284° West 363 418 38,000  Level Albuquerque Center
Tue 03:38:25 PM 31.5686 -105.0481 284° West 363 418 38,000  Level Albuquerque Center
Tue 03:39:27 PM 31.5917 -105.1622 283° West 364 419 38,000  Level Albuquerque Center
Tue 03:40:29 PM 31.6150 -105.2761 284° West 362 417 38,000  Level Albuquerque Center
Tue 03:41:31 PM 31.6386 -105.3925 283° West 369 425 38,000  Level Albuquerque Center
Tue 03:42:32 PM 31.6622 -105.5069 284° West 364 419 38,000  Level Albuquerque Center
Tue 03:43:34 PM 31.6847 -105.6217 283° West 362 417 38,000  Level Albuquerque Center
Tue 03:44:36 PM 31.7122 -105.7597 283° West 365 420 38,000  Level Albuquerque Center
Tue 03:45:38 PM 31.7356 -105.8742 284° West 363 418 38,000  Level Albuquerque Center
Tue 03:46:40 PM 31.7583 -105.9886 283° West 362 417 38,000  Level Albuquerque Center
Tue 03:47:42 PM 31.7814 -106.1036 283° West 361 415 38,000  Level Albuquerque Center
Tue 03:48:44 PM 31.8042 -106.2156 283° West 354 407 38,000  Level Albuquerque Center
Tue 03:49:46 PM 31.8197 -106.3297 279° West 354 407 38,000  Level Albuquerque Center
Tue 03:50:48 PM 31.8303 -106.4661 275° West 352 405 38,000  Level Albuquerque Center
Tue 03:51:50 PM 31.8367 -106.5694 274° West 352 405 38,000  Level Albuquerque Center
Tue 03:52:52 PM 31.8458 -106.6817 276° West 347 399 38,000  Level Albuquerque Center
Tue 03:53:54 PM 31.8567 -106.8164 275° West 343 395 38,000  Level Albuquerque Center
Tue 03:54:56 PM 31.8644 -106.9286 275° West 343 395 38,000  Level Albuquerque Center
Tue 03:55:58 PM 31.8725 -107.0403 275° West 342 394 38,000  Level Albuquerque Center
Tue 03:57:00 PM 31.8803 -107.1517 275° West 341 392 38,000  Level Albuquerque Center
Tue 03:58:02 PM 31.8878 -107.2639 275° West 342 394 38,000  Level Albuquerque Center
Tue 03:59:04 PM 31.8953 -107.3767 275° West 343 395 38,000  Level Albuquerque Center
Tue 04:00:05 PM 31.9022 -107.4883 274° West 342 394 38,000  Level Albuquerque Center
Tue 04:01:07 PM 31.9094 -107.6008 274° West 343 395 38,000  Level Albuquerque Center
Tue 04:02:09 PM 31.9183 -107.7383 274° West 348 400 38,000  Level Albuquerque Center
Tue 04:03:11 PM 31.9392 -107.8514 282° West 351 404 38,000 -48 Level Albuquerque Center
Tue 04:04:13 PM 31.9675 -107.9639 287° West 357 411 37,900 -435 Descending Albuquerque Center
Tue 04:05:15 PM 31.9928 -108.0769 285° West 358 412 37,100 -871 Descending Albuquerque Center
Tue 04:06:17 PM 32.0197 -108.1925 285° West 362 417 36,100 -532 Descending Albuquerque Center
Tue 04:07:19 PM 32.0478 -108.3108 286° West 371 427 36,000 -48 Descending Albuquerque Center
Tue 04:08:21 PM 32.0817 -108.4533 286° West 374 430 36,000  Level Albuquerque Center
Tue 04:09:23 PM 32.1056 -108.5558 285° West 374 430 36,000  Level Albuquerque Center
Tue 04:10:25 PM 32.1331 -108.6731 286° West 372 428 36,000  Level Albuquerque Center
Tue 04:11:26 PM 32.1656 -108.8131 285° West 369 425 36,000  Level Albuquerque Center
Tue 04:12:28 PM 32.1925 -108.9289 285° West 367 422 36,000  Level Albuquerque Center
Tue 04:13:30 PM 32.2181 -109.0442 285° West 363 418 36,000  Level Albuquerque Center
Tue 04:14:32 PM 32.2450 -109.1597 285° West 364 419 36,000  Level Albuquerque Center
Tue 04:15:34 PM 32.2719 -109.2767 285° West 366 421 36,000  Level Albuquerque Center
Tue 04:16:36 PM 32.3000 -109.3928 286° West 367 422 36,000  Level Albuquerque Center
Tue 04:17:37 PM 32.3286 -109.5097 286° West 369 425 36,000 -390 Level Albuquerque Center
Tue 04:18:39 PM 32.3622 -109.6500 286° West 369 425 35,200 -1,113 Descending Albuquerque Center
Tue 04:19:41 PM 32.3908 -109.7692 286° West 374 430 33,700 -1,452 Descending Albuquerque Center
Tue 04:20:43 PM 32.4211 -109.8886 287° West 378 435 32,200 -1,452 Descending Albuquerque Center
Tue 04:21:45 PM 32.4503 -110.0111 286° West 384 442 30,700 -1,452 Descending Albuquerque Center
Tue 04:22:47 PM 32.4797 -110.1353 286° West 389 448 29,200 -1,512 Descending Albuquerque Center
Tue 04:23:48 PM 32.5094 -110.2625 286° West 397 457 27,600 -1,610 Descending Albuquerque Center
Tue 04:24:50 PM 32.5414 -110.3958 286° West 398 458 25,900 -1,694 Descending Albuquerque Center
Tue 04:25:52 PM 32.5708 -110.5194 286° West 393 452 24,100 -919 Descending Albuquerque Center
Tue 04:26:54 PM 32.6144 -110.6378 294° West 397 457 24,000 -484 Descending Albuquerque Center
Tue 04:27:56 PM 32.6878 -110.7733 303° West 406 467 23,100 -1,210 Descending Albuquerque Center
Tue 04:28:58 PM 32.7453 -110.8839 302° West 399 459 21,500 -1,548 Descending Albuquerque Center
Tue 04:30:00 PM 32.8039 -110.9925 303° West 392 451 19,900 -1,597 Descending Albuquerque Center
Tue 04:31:02 PM 32.8603 -111.1017 302° West 390 449 18,200 -1,694 Descending Albuquerque Center
Tue 04:32:04 PM 32.9144 -111.2144 300° West 391 450 16,400 -1,756 Descending Albuquerque Center
Tue 04:33:05 PM 32.9642 -111.3203 299° West 369 425 14,600 -1,366 Descending Albuquerque Center
Tue 04:34:07 PM 33.0061 -111.4147 298° West 326 375 13,600 -1,065 Descending Albuquerque Center
Tue 04:35:09 PM 33.0578 -111.5117 302° West 288 331 12,400 -1,016 Descending Albuquerque Center
Tue 04:36:11 PM 33.0956 -111.5814 303° West 256 295 11,500 -919 Descending Albuquerque Center
Tue 04:37:13 PM 33.1311 -111.6481 303° West 240 276 10,500 -968 Descending Albuquerque Center
Tue 04:38:15 PM 33.1886 -111.6394 North 259 298 9,500 -919 Descending Albuquerque Center
Tue 04:39:17 PM 33.2475 -111.6042 27° Northeast 252 290 8,600 -774 Descending Albuquerque Center
Tue 04:40:19 PM 33.3169 -111.6117 355° North 251 289 7,900 -1,113 Descending Albuquerque Center
Tue 04:41:21 PM 33.3972 -111.6233 353° North 242 278 6,300 -1,403 Descending Albuquerque Center
Tue 04:42:23 PM 33.4286 -111.6775 305° West 219 252 5,000 -629 Descending Albuquerque Center
Tue 04:43:25 PM 33.4289 -111.7392 270° West 189 217 5,000 -244 Level Albuquerque Center
Tue 04:44:26 PM 33.4294 -111.7992 271° West 182 209 4,500 -780 Descending Albuquerque Center
Tue 04:45:28 PM 33.4289 -111.8597 269° West 182 209 3,400 -968 Descending Albuquerque Center
Tue 04:46:30 PM 33.4289 -111.9158 270° West 171 197 2,500 -774 Descending Albuquerque Center
Tue 04:47:32 PM 33.4294 -111.9606 271° West 140 161 1,800 -629 Descending Albuquerque Center
Tue 04:48:34 PM 33.4281 -112.0169 268° West 137 158 1,200 -581 Descending Albuquerque Center

Login

Don't have an account? Register now (free) for customized features, flight alerts, and more!